createdAt,value
2017-11-17T00:01:47.991Z,964.17
2017-11-17T00:02:47.985Z,964.12
2017-11-17T00:04:41.398Z,964.11
2017-11-17T00:05:41.361Z,964.11
2017-11-17T00:07:34.777Z,964.13
2017-11-17T00:08:34.733Z,964.11
2017-11-17T00:10:28.162Z,964.13
2017-11-17T00:11:28.131Z,964.12
2017-11-17T00:13:21.534Z,964.11
2017-11-17T00:14:21.543Z,964.10
2017-11-17T00:16:14.922Z,964.07
2017-11-17T00:17:14.882Z,964.02
2017-11-17T00:19:08.298Z,964.04
2017-11-17T00:20:08.305Z,963.99
2017-11-17T00:22:01.720Z,963.98
2017-11-17T00:23:01.661Z,963.99
2017-11-17T00:24:55.042Z,963.93
2017-11-17T00:25:55.070Z,963.93
2017-11-17T00:27:48.475Z,963.89
2017-11-17T00:28:48.475Z,963.87
2017-11-17T00:30:41.881Z,963.88
2017-11-17T00:31:41.833Z,963.84
2017-11-17T00:33:35.318Z,963.87
2017-11-17T00:34:35.228Z,963.84
2017-11-17T00:36:28.632Z,963.81
2017-11-17T00:37:28.617Z,963.78
2017-11-17T00:39:22.059Z,963.72
2017-11-17T00:40:22.014Z,963.74
2017-11-17T00:42:15.357Z,963.77
2017-11-17T00:43:15.368Z,963.82
2017-11-17T00:45:08.802Z,963.86
2017-11-17T00:46:08.738Z,963.83
2017-11-17T00:48:02.154Z,963.85
2017-11-17T00:49:02.112Z,963.88
2017-11-17T00:50:55.576Z,963.88
2017-11-17T00:51:55.498Z,963.89
2017-11-17T00:53:48.919Z,963.85
2017-11-17T00:54:48.877Z,963.86
2017-11-17T00:56:42.356Z,963.81
2017-11-17T00:57:42.302Z,963.83
2017-11-17T00:59:35.698Z,963.82
2017-11-17T01:00:35.684Z,963.80
2017-11-17T01:02:29.038Z,963.81
2017-11-17T01:03:29.103Z,963.83
2017-11-17T01:05:22.429Z,963.85
2017-11-17T01:06:22.455Z,963.87
2017-11-17T01:08:15.833Z,963.84
2017-11-17T01:09:15.854Z,963.88
2017-11-17T01:11:09.260Z,963.90
2017-11-17T01:12:09.247Z,963.89
2017-11-17T01:14:02.723Z,963.96
2017-11-17T01:15:02.620Z,964.05
2017-11-17T01:16:55.995Z,964.12
2017-11-17T01:17:56.017Z,964.16
2017-11-17T01:19:50.419Z,964.14
2017-11-17T01:20:50.386Z,964.10
2017-11-17T01:22:43.791Z,964.05
2017-11-17T01:23:43.772Z,964.03
2017-11-17T01:25:37.189Z,964.01
2017-11-17T01:26:37.163Z,964.02
2017-11-17T01:28:30.599Z,964.00
2017-11-17T01:29:30.600Z,963.99
2017-11-17T01:31:23.998Z,964.03
2017-11-17T01:32:24.015Z,964.02
2017-11-17T01:34:17.388Z,964.01
2017-11-17T01:35:17.316Z,963.98
2017-11-17T01:37:10.711Z,964.02
2017-11-17T01:38:10.704Z,963.99
2017-11-17T01:40:04.171Z,963.98
2017-11-17T01:41:04.085Z,964.06
2017-11-17T01:42:57.443Z,964.06
2017-11-17T01:43:57.540Z,964.07
2017-11-17T01:45:50.921Z,964.06
2017-11-17T01:46:50.880Z,964.04
2017-11-17T01:48:44.238Z,964.01
2017-11-17T01:49:44.273Z,964.04
2017-11-17T01:51:37.591Z,964.03
2017-11-17T01:52:37.623Z,964.03
2017-11-17T01:54:31.990Z,963.97
2017-11-17T01:55:32.008Z,963.95
2017-11-17T01:57:25.475Z,963.97
2017-11-17T01:58:25.356Z,963.95
2017-11-17T02:00:18.759Z,963.95
2017-11-17T02:01:18.810Z,963.97
2017-11-17T02:03:12.226Z,963.94
2017-11-17T02:04:12.169Z,963.94
2017-11-17T02:06:05.626Z,963.96
2017-11-17T02:07:05.558Z,963.96
2017-11-17T02:08:58.996Z,963.96
2017-11-17T02:09:58.953Z,963.99
2017-11-17T02:11:52.327Z,963.98
2017-11-17T02:12:52.361Z,963.93
2017-11-17T02:14:45.775Z,963.93
2017-11-17T02:15:45.685Z,963.93
2017-11-17T02:17:39.134Z,963.88
2017-11-17T02:18:39.055Z,963.83
2017-11-17T02:20:32.487Z,963.87
2017-11-17T02:21:32.457Z,963.84
2017-11-17T02:23:25.829Z,963.85
2017-11-17T02:24:25.889Z,963.84
2017-11-17T02:26:19.340Z,963.88
2017-11-17T02:27:19.270Z,963.87
2017-11-17T02:29:12.688Z,963.91
2017-11-17T02:30:12.653Z,963.95
2017-11-17T02:32:06.025Z,963.97
2017-11-17T02:33:06.069Z,964.01
2017-11-17T02:34:59.449Z,964.07
2017-11-17T02:35:59.440Z,964.11
2017-11-17T02:37:52.826Z,964.14
2017-11-17T02:38:52.876Z,964.12
2017-11-17T02:40:46.278Z,964.11
2017-11-17T02:41:46.217Z,964.10
2017-11-17T02:43:39.700Z,964.12
2017-11-17T02:44:39.607Z,964.12
2017-11-17T02:46:32.975Z,964.06
2017-11-17T02:47:32.962Z,964.08
2017-11-17T02:49:26.973Z,964.06
2017-11-17T02:50:26.433Z,964.07
2017-11-17T02:52:19.756Z,964.05
2017-11-17T02:53:19.770Z,964.04
2017-11-17T02:55:13.154Z,964.05
2017-11-17T02:56:13.114Z,964.05
2017-11-17T02:58:06.599Z,964.03
2017-11-17T02:59:06.554Z,964.01
2017-11-17T03:00:59.984Z,964.01
2017-11-17T03:02:00.050Z,964.01
2017-11-17T03:03:53.346Z,963.99
2017-11-17T03:04:53.362Z,963.94
2017-11-17T03:06:46.730Z,963.92
2017-11-17T03:07:46.748Z,963.89
2017-11-17T03:09:40.106Z,963.94
2017-11-17T03:10:40.113Z,963.93
2017-11-17T03:12:33.542Z,963.92
2017-11-17T03:13:33.467Z,963.94
2017-11-17T03:15:26.858Z,964.00
2017-11-17T03:16:26.943Z,964.01
2017-11-17T03:18:20.418Z,964.01
2017-11-17T03:19:20.337Z,964.00
2017-11-17T03:21:13.733Z,964.03
2017-11-17T03:22:13.725Z,963.95
2017-11-17T03:24:07.081Z,963.99
2017-11-17T03:25:07.078Z,963.94
2017-11-17T03:27:00.532Z,963.95
2017-11-17T03:28:00.458Z,963.95
2017-11-17T03:29:53.830Z,963.90
2017-11-17T03:30:53.864Z,963.88
2017-11-17T03:32:47.227Z,963.88
2017-11-17T03:33:47.259Z,963.92
2017-11-17T03:35:40.662Z,963.90
2017-11-17T03:36:40.668Z,963.93
2017-11-17T03:38:34.132Z,963.92
2017-11-17T03:39:34.028Z,963.94
2017-11-17T03:41:27.396Z,963.89
2017-11-17T03:42:27.381Z,963.87
2017-11-17T03:44:20.783Z,963.80
2017-11-17T03:45:20.751Z,963.80
2017-11-17T03:47:14.193Z,963.82
2017-11-17T03:48:14.194Z,963.83
2017-11-17T03:50:07.544Z,963.86
2017-11-17T03:51:07.536Z,963.87
2017-11-17T03:53:00.921Z,963.89
2017-11-17T03:54:00.911Z,963.85
2017-11-17T03:55:54.319Z,963.88
2017-11-17T03:56:54.341Z,963.87
2017-11-17T03:58:47.742Z,963.97
2017-11-17T03:59:47.722Z,964.06
2017-11-17T04:01:41.885Z,964.11
2017-11-17T04:02:41.112Z,964.14
2017-11-17T04:04:34.480Z,963.96
2017-11-17T04:05:34.508Z,963.96
2017-11-17T04:07:27.836Z,964.02
2017-11-17T04:08:27.865Z,964.00
2017-11-17T04:10:21.321Z,963.93
2017-11-17T04:11:21.286Z,963.89
2017-11-17T04:13:15.768Z,963.89
2017-11-17T04:14:15.660Z,963.96
2017-11-17T04:16:09.059Z,963.95
2017-11-17T04:17:09.048Z,963.90
2017-11-17T04:19:02.460Z,963.81
2017-11-17T04:20:02.456Z,963.84
2017-11-17T04:21:55.824Z,963.89
2017-11-17T04:22:55.817Z,963.90
2017-11-17T04:24:49.248Z,963.88
2017-11-17T04:25:49.233Z,963.83
2017-11-17T04:27:42.633Z,963.81
2017-11-17T04:28:42.589Z,963.84
2017-11-17T04:30:35.990Z,963.82
2017-11-17T04:31:35.958Z,963.81
2017-11-17T04:33:29.331Z,963.85
2017-11-17T04:34:29.340Z,963.84
2017-11-17T04:36:22.794Z,963.84
2017-11-17T04:37:22.735Z,963.81
2017-11-17T04:39:16.155Z,963.78
2017-11-17T04:40:16.137Z,963.82
2017-11-17T04:42:09.459Z,963.88
2017-11-17T04:43:09.499Z,963.90
2017-11-17T04:45:03.012Z,963.89
2017-11-17T04:46:02.870Z,963.91
2017-11-17T04:47:56.330Z,963.87
2017-11-17T04:48:56.246Z,963.83
2017-11-17T04:50:49.651Z,963.86
2017-11-17T04:51:49.646Z,963.85
2017-11-17T04:53:43.035Z,963.86
2017-11-17T04:54:43.035Z,963.91
2017-11-17T04:56:36.395Z,963.99
2017-11-17T04:57:36.405Z,964.06
2017-11-17T04:59:29.752Z,964.07
2017-11-17T05:00:29.827Z,964.09
2017-11-17T05:02:23.136Z,964.19
2017-11-17T05:03:23.143Z,964.16
2017-11-17T05:05:16.602Z,964.23
2017-11-17T05:06:16.546Z,964.22
2017-11-17T05:08:10.020Z,964.21
2017-11-17T05:09:10.050Z,964.17
2017-11-17T05:11:03.349Z,964.16
2017-11-17T05:12:03.358Z,964.12
2017-11-17T05:13:56.723Z,964.10
2017-11-17T05:14:56.709Z,964.09
2017-11-17T05:16:50.086Z,964.06
2017-11-17T05:17:50.120Z,964.07
2017-11-17T05:19:43.520Z,964.13
2017-11-17T05:20:43.474Z,964.16
2017-11-17T05:22:36.841Z,964.11
2017-11-17T05:23:36.868Z,964.10
2017-11-17T05:25:30.288Z,964.17
2017-11-17T05:26:30.252Z,964.20
2017-11-17T05:28:23.677Z,964.23
2017-11-17T05:29:23.609Z,964.28
2017-11-17T05:31:17.021Z,964.23
2017-11-17T05:32:17.027Z,964.23
2017-11-17T05:34:10.417Z,964.22
2017-11-17T05:35:10.374Z,964.19
2017-11-17T05:37:03.764Z,964.23
2017-11-17T05:38:03.794Z,964.19
2017-11-17T05:39:57.112Z,964.19
2017-11-17T05:40:57.168Z,964.18
2017-11-17T05:42:50.500Z,964.23
2017-11-17T05:43:50.544Z,964.22
2017-11-17T05:45:43.938Z,964.20
2017-11-17T05:46:43.923Z,964.18
2017-11-17T05:48:37.405Z,964.16
2017-11-17T05:49:37.293Z,964.14
2017-11-17T05:51:30.697Z,964.07
2017-11-17T05:52:30.692Z,964.05
2017-11-17T05:54:24.116Z,964.05
2017-11-17T05:55:24.128Z,964.02
2017-11-17T05:57:17.483Z,964.04
2017-11-17T05:58:17.497Z,964.03
2017-11-17T06:00:10.843Z,964.02
2017-11-17T06:01:10.876Z,963.98
2017-11-17T06:03:04.377Z,963.97
2017-11-17T06:04:04.429Z,963.91
2017-11-17T06:05:57.816Z,963.87
2017-11-17T06:06:57.848Z,963.86
2017-11-17T06:08:52.204Z,963.87
2017-11-17T06:09:52.226Z,963.91
2017-11-17T06:11:45.651Z,963.94
2017-11-17T06:12:45.575Z,963.91
2017-11-17T06:14:38.927Z,963.91
2017-11-17T06:15:38.959Z,963.91
2017-11-17T06:17:32.294Z,963.91
2017-11-17T06:18:32.396Z,963.89
2017-11-17T06:20:25.660Z,963.95
2017-11-17T06:21:25.698Z,963.98
2017-11-17T06:23:19.085Z,963.97
2017-11-17T06:24:19.078Z,963.99
2017-11-17T06:26:12.478Z,964.02
2017-11-17T06:27:12.500Z,964.04
2017-11-17T06:29:05.881Z,964.04
2017-11-17T06:30:05.867Z,964.08
2017-11-17T06:31:59.191Z,964.08
2017-11-17T06:32:59.240Z,964.11
2017-11-17T06:34:52.619Z,964.09
2017-11-17T06:35:52.651Z,964.10
2017-11-17T06:37:46.035Z,964.06
2017-11-17T06:38:46.016Z,964.06
2017-11-17T06:40:39.416Z,964.05
2017-11-17T06:41:39.401Z,964.10
2017-11-17T06:43:32.789Z,964.14
2017-11-17T06:44:32.785Z,964.15
2017-11-17T06:46:26.160Z,964.16
2017-11-17T06:47:26.194Z,964.19
2017-11-17T06:49:19.562Z,964.17
2017-11-17T06:50:19.552Z,964.20
2017-11-17T06:52:12.949Z,964.21
2017-11-17T06:53:12.921Z,964.27
2017-11-17T06:55:06.261Z,964.26
2017-11-17T06:56:06.347Z,964.23
2017-11-17T06:57:59.854Z,964.22
2017-11-17T06:58:59.703Z,964.27
2017-11-17T07:00:53.042Z,964.30
2017-11-17T07:01:53.128Z,964.30
2017-11-17T07:03:46.473Z,964.31
2017-11-17T07:04:46.481Z,964.30
2017-11-17T07:06:39.867Z,964.33
2017-11-17T07:07:39.841Z,964.32
2017-11-17T07:09:33.241Z,964.32
2017-11-17T07:10:33.316Z,964.31
2017-11-17T07:12:26.630Z,964.25
2017-11-17T07:13:26.614Z,964.26
2017-11-17T07:15:20.045Z,964.36
2017-11-17T07:16:20.020Z,964.40
2017-11-17T07:18:13.406Z,964.45
2017-11-17T07:19:13.473Z,964.42
2017-11-17T07:21:06.785Z,964.43
2017-11-17T07:22:06.810Z,964.45
2017-11-17T07:24:01.148Z,964.53
2017-11-17T07:25:01.201Z,964.59
2017-11-17T07:26:54.524Z,964.61
2017-11-17T07:27:54.567Z,964.59
2017-11-17T07:29:47.944Z,964.60
2017-11-17T07:30:47.954Z,964.54
2017-11-17T07:32:41.313Z,964.58
2017-11-17T07:33:41.331Z,964.54
2017-11-17T07:35:35.712Z,964.55
2017-11-17T07:36:35.742Z,964.51
2017-11-17T07:38:29.145Z,964.57
2017-11-17T07:39:29.098Z,964.58
2017-11-17T07:41:22.538Z,964.53
2017-11-17T07:42:22.493Z,964.50
2017-11-17T07:44:15.883Z,964.51
2017-11-17T07:45:15.874Z,964.48
2017-11-17T07:47:09.260Z,964.48
2017-11-17T07:48:09.246Z,964.47
2017-11-17T07:50:02.652Z,964.49
2017-11-17T07:51:02.630Z,964.50
2017-11-17T07:52:56.041Z,964.44
2017-11-17T07:53:56.033Z,964.44
2017-11-17T07:55:49.447Z,964.44
2017-11-17T07:56:49.455Z,964.45
2017-11-17T07:58:42.836Z,964.49
2017-11-17T07:59:42.879Z,964.51
2017-11-17T08:01:36.255Z,964.50
2017-11-17T08:02:36.247Z,964.48
2017-11-17T08:04:29.622Z,964.50
2017-11-17T08:05:29.606Z,964.45
2017-11-17T08:07:23.090Z,964.48
2017-11-17T08:08:23.024Z,964.48
2017-11-17T08:10:16.446Z,964.45
2017-11-17T08:11:16.411Z,964.46
2017-11-17T08:13:09.799Z,964.45
2017-11-17T08:14:09.802Z,964.40
2017-11-17T08:16:03.231Z,964.42
2017-11-17T08:17:03.213Z,964.40
2017-11-17T08:18:56.598Z,964.43
2017-11-17T08:19:56.621Z,964.45
2017-11-17T08:21:49.933Z,964.45
2017-11-17T08:22:49.978Z,964.47
2017-11-17T08:24:43.357Z,964.45
2017-11-17T08:25:43.389Z,964.46
2017-11-17T08:27:36.766Z,964.47
2017-11-17T08:28:36.781Z,964.52
2017-11-17T08:30:30.168Z,964.50
2017-11-17T08:31:30.161Z,964.54
2017-11-17T08:33:24.562Z,964.54
2017-11-17T08:34:24.539Z,964.54
2017-11-17T08:36:18.940Z,964.54
2017-11-17T08:37:18.942Z,964.56
2017-11-17T08:39:12.353Z,964.59
2017-11-17T08:40:12.313Z,964.62
2017-11-17T08:42:06.704Z,964.64
2017-11-17T08:43:06.706Z,964.68
2017-11-17T08:45:00.058Z,964.65
2017-11-17T08:46:00.122Z,964.64
2017-11-17T08:47:53.474Z,964.61
2017-11-17T08:48:53.484Z,964.61
2017-11-17T08:50:47.791Z,964.66
2017-11-17T08:51:47.845Z,964.66
2017-11-17T08:53:41.212Z,964.65
2017-11-17T08:54:41.194Z,964.68
2017-11-17T08:56:34.603Z,964.64
2017-11-17T08:57:34.616Z,964.65
2017-11-17T08:59:28.000Z,964.66
2017-11-17T09:00:27.965Z,964.64
2017-11-17T09:02:21.369Z,964.63
2017-11-17T09:03:21.355Z,964.64
2017-11-17T09:05:14.768Z,964.63
2017-11-17T09:06:14.793Z,964.61
2017-11-17T09:08:09.110Z,964.62
2017-11-17T09:09:09.154Z,964.63
2017-11-17T09:11:02.518Z,964.63
2017-11-17T09:12:02.545Z,964.61
2017-11-17T09:13:55.876Z,964.63
2017-11-17T09:14:55.961Z,964.62
2017-11-17T09:16:49.302Z,964.61
2017-11-17T09:17:49.325Z,964.60
2017-11-17T09:19:42.702Z,964.61
2017-11-17T09:20:42.720Z,964.63
2017-11-17T09:22:36.079Z,964.61
2017-11-17T09:23:36.102Z,964.62
2017-11-17T09:25:29.529Z,964.58
2017-11-17T09:26:29.600Z,964.61
2017-11-17T09:28:24.844Z,964.64
2017-11-17T09:29:24.844Z,964.60
2017-11-17T09:31:18.274Z,964.62
2017-11-17T09:32:18.294Z,964.63
2017-11-17T09:34:11.647Z,964.61
2017-11-17T09:35:11.648Z,964.62
2017-11-17T09:37:05.082Z,964.59
2017-11-17T09:38:05.072Z,964.63
2017-11-17T09:39:58.433Z,964.61
2017-11-17T09:40:58.404Z,964.63
2017-11-17T09:42:52.773Z,964.65
2017-11-17T09:43:52.797Z,964.64
2017-11-17T09:45:46.242Z,964.67
2017-11-17T09:46:46.192Z,964.64
2017-11-17T09:48:39.610Z,964.63
2017-11-17T09:49:39.673Z,964.63
2017-11-17T09:51:32.967Z,964.65
2017-11-17T09:52:33.010Z,964.66
2017-11-17T09:54:26.405Z,964.64
2017-11-17T09:55:26.378Z,964.63
2017-11-17T09:57:20.772Z,964.61
2017-11-17T09:58:20.906Z,964.62
2017-11-17T10:00:14.238Z,964.62
2017-11-17T10:01:14.271Z,964.60
2017-11-17T10:03:07.613Z,964.55
2017-11-17T10:04:07.640Z,964.56
2017-11-17T10:06:00.998Z,964.52
2017-11-17T10:07:00.974Z,964.47
2017-11-17T10:08:54.372Z,964.51
2017-11-17T10:09:54.384Z,964.49
2017-11-17T10:11:47.767Z,964.49
2017-11-17T10:12:47.773Z,964.50
2017-11-17T10:14:41.212Z,964.49
2017-11-17T10:15:41.136Z,964.55
2017-11-17T10:17:34.538Z,964.56
2017-11-17T10:18:34.577Z,964.54
2017-11-17T10:20:27.880Z,964.48
2017-11-17T10:21:27.953Z,964.50
2017-11-17T10:23:21.488Z,964.48
2017-11-17T10:24:21.406Z,964.48
2017-11-17T10:26:23.347Z,964.49
2017-11-17T10:27:14.781Z,964.45
2017-11-17T10:29:08.185Z,964.45
2017-11-17T10:30:15.753Z,964.43
2017-11-17T10:32:01.576Z,964.37
2017-11-17T10:33:09.321Z,964.35
2017-11-17T10:35:03.900Z,964.34
2017-11-17T10:36:04.827Z,964.38
2017-11-17T10:37:59.221Z,964.37
2017-11-17T10:38:50.592Z,964.36
2017-11-17T10:40:43.953Z,964.32
2017-11-17T10:41:52.775Z,964.35
2017-11-17T10:43:47.049Z,964.32
2017-11-17T10:44:37.419Z,964.31
2017-11-17T10:46:40.614Z,964.30
2017-11-17T10:47:39.514Z,964.29
2017-11-17T10:49:26.229Z,964.30
2017-11-17T10:50:26.244Z,964.29
2017-11-17T10:52:19.620Z,964.28
2017-11-17T10:53:19.623Z,964.29
2017-11-17T10:55:21.597Z,964.33
2017-11-17T10:56:12.924Z,964.32
2017-11-17T10:58:14.068Z,964.29
2017-11-17T10:59:06.406Z,964.28
2017-11-17T11:01:00.845Z,964.33
2017-11-17T11:02:00.839Z,964.36
2017-11-17T11:03:54.185Z,964.30
2017-11-17T11:04:54.165Z,964.31
2017-11-17T11:06:47.610Z,964.32
2017-11-17T11:07:56.269Z,964.32
2017-11-17T11:09:40.952Z,964.31
2017-11-17T11:10:49.675Z,964.33
2017-11-17T11:12:34.372Z,964.35
2017-11-17T11:13:34.381Z,964.36
2017-11-17T11:15:27.739Z,964.33
2017-11-17T11:16:27.739Z,964.33
2017-11-17T11:18:21.148Z,964.35
2017-11-17T11:19:21.283Z,964.35
2017-11-17T11:21:14.615Z,964.39
2017-11-17T11:22:14.533Z,964.36
2017-11-17T11:24:15.514Z,964.37
2017-11-17T11:25:15.504Z,964.31
2017-11-17T11:27:02.403Z,964.30
2017-11-17T11:28:11.156Z,964.28
2017-11-17T11:29:56.784Z,964.31
2017-11-17T11:30:56.761Z,964.31
2017-11-17T11:32:58.801Z,964.34
2017-11-17T11:33:58.326Z,964.36
2017-11-17T11:35:52.797Z,964.35
2017-11-17T11:36:51.822Z,964.36
2017-11-17T11:38:46.419Z,964.34
2017-11-17T11:39:47.244Z,964.35
2017-11-17T11:41:40.777Z,964.30
2017-11-17T11:42:42.989Z,964.33
2017-11-17T11:44:35.129Z,964.32
2017-11-17T11:45:34.604Z,964.29
2017-11-17T11:47:27.655Z,964.31
2017-11-17T11:48:19.880Z,964.27
2017-11-17T11:50:23.902Z,964.24
2017-11-17T11:51:22.808Z,964.27
2017-11-17T11:53:09.760Z,964.22
2017-11-17T11:54:09.608Z,964.27
2017-11-17T11:56:12.523Z,964.26
2017-11-17T11:57:12.642Z,964.26
2017-11-17T11:58:57.489Z,964.26
2017-11-17T12:00:05.099Z,964.30
2017-11-17T12:01:50.970Z,964.26
2017-11-17T12:02:50.995Z,964.29
2017-11-17T12:04:44.161Z,964.29
2017-11-17T12:05:44.267Z,964.28
2017-11-17T12:07:38.696Z,964.24
2017-11-17T12:08:46.343Z,964.25
2017-11-17T12:10:32.147Z,964.26
2017-11-17T12:11:32.184Z,964.27
2017-11-17T12:13:25.492Z,964.24
2017-11-17T12:14:25.451Z,964.27
2017-11-17T12:16:18.777Z,964.22
2017-11-17T12:17:18.782Z,964.19
2017-11-17T12:19:13.280Z,964.20
2017-11-17T12:20:13.203Z,964.16
2017-11-17T12:22:06.640Z,964.17
2017-11-17T12:23:06.631Z,964.16
2017-11-17T12:25:02.009Z,964.10
2017-11-17T12:26:02.175Z,964.13
2017-11-17T12:27:55.569Z,964.16
2017-11-17T12:28:55.437Z,964.14
2017-11-17T12:30:49.888Z,964.14
2017-11-17T12:31:58.428Z,964.15
2017-11-17T12:33:52.828Z,964.15
2017-11-17T12:34:44.305Z,964.15
2017-11-17T12:36:37.484Z,964.11
2017-11-17T12:37:37.542Z,964.14
2017-11-17T12:39:30.924Z,964.09
2017-11-17T12:40:30.908Z,964.10
2017-11-17T12:42:24.373Z,964.11
2017-11-17T12:43:24.313Z,964.08
2017-11-17T12:45:17.665Z,964.06
2017-11-17T12:46:17.663Z,964.06
2017-11-17T12:48:11.075Z,964.05
2017-11-17T12:49:11.052Z,963.99
2017-11-17T12:51:04.465Z,964.00
2017-11-17T12:52:04.475Z,963.99
2017-11-17T12:53:57.817Z,963.97
2017-11-17T12:54:57.862Z,963.92
2017-11-17T12:56:51.319Z,963.93
2017-11-17T12:57:51.317Z,963.89
2017-11-17T12:59:44.677Z,963.90
2017-11-17T13:00:44.673Z,963.94
2017-11-17T13:02:38.118Z,963.93
2017-11-17T13:03:38.024Z,963.95
2017-11-17T13:05:31.477Z,963.95
2017-11-17T13:06:31.437Z,963.94
2017-11-17T13:08:24.826Z,963.95
2017-11-17T13:09:24.825Z,964.00
2017-11-17T13:11:18.195Z,963.98
2017-11-17T13:12:18.246Z,963.99
2017-11-17T13:14:11.603Z,963.96
2017-11-17T13:15:11.619Z,963.99
2017-11-17T13:17:04.983Z,963.95
2017-11-17T13:18:05.003Z,963.92
2017-11-17T13:19:58.393Z,963.94
2017-11-17T13:20:58.356Z,963.88
2017-11-17T13:22:51.841Z,963.90
2017-11-17T13:23:52.039Z,963.89
2017-11-17T13:25:45.183Z,963.86
2017-11-17T13:26:45.167Z,963.86
2017-11-17T13:28:38.557Z,963.86
2017-11-17T13:29:38.740Z,963.81
2017-11-17T13:31:31.959Z,963.82
2017-11-17T13:32:32.012Z,963.83
2017-11-17T13:34:25.389Z,963.79
2017-11-17T13:35:25.370Z,963.82
2017-11-17T13:37:18.723Z,963.78
2017-11-17T13:38:18.799Z,963.80
2017-11-17T13:40:13.515Z,963.78
2017-11-17T13:41:13.380Z,963.81
2017-11-17T13:43:06.839Z,963.78
2017-11-17T13:44:06.869Z,963.75
2017-11-17T13:46:00.240Z,963.73
2017-11-17T13:47:00.225Z,963.73
2017-11-17T13:48:53.587Z,963.75
2017-11-17T13:49:53.663Z,963.77
2017-11-17T13:51:47.071Z,963.74
2017-11-17T13:52:47.009Z,963.73
2017-11-17T13:54:40.399Z,963.71
2017-11-17T13:55:40.440Z,963.70
2017-11-17T13:57:34.837Z,963.73
2017-11-17T13:58:34.820Z,963.75
2017-11-17T14:00:28.256Z,963.71
2017-11-17T14:01:28.186Z,963.75
2017-11-17T14:03:21.682Z,963.73
2017-11-17T14:04:21.580Z,963.72
2017-11-17T14:06:16.016Z,963.72
2017-11-17T14:07:15.973Z,963.72
2017-11-17T14:09:10.423Z,963.73
2017-11-17T14:10:10.398Z,963.71
2017-11-17T14:12:03.803Z,963.73
2017-11-17T14:13:03.776Z,963.73
2017-11-17T14:14:57.154Z,963.73
2017-11-17T14:15:57.239Z,963.73
2017-11-17T14:17:51.550Z,963.68
2017-11-17T14:18:51.605Z,963.70
2017-11-17T14:20:45.020Z,963.72
2017-11-17T14:21:44.978Z,963.70
2017-11-17T14:23:39.373Z,963.71
2017-11-17T14:24:39.440Z,963.71
2017-11-17T14:26:32.781Z,963.67
2017-11-17T14:27:32.744Z,963.69
2017-11-17T14:29:26.208Z,963.64
2017-11-17T14:30:26.200Z,963.65
2017-11-17T14:32:20.512Z,963.67
2017-11-17T14:33:20.612Z,963.64
2017-11-17T14:35:13.972Z,963.64
2017-11-17T14:36:13.997Z,963.59
2017-11-17T14:38:08.378Z,963.62
2017-11-17T14:39:08.377Z,963.59
2017-11-17T14:41:01.714Z,963.61
2017-11-17T14:42:01.832Z,963.64
2017-11-17T14:43:56.098Z,963.58
2017-11-17T14:44:56.164Z,963.56
2017-11-17T14:46:50.591Z,963.58
2017-11-17T14:47:50.515Z,963.63
2017-11-17T14:49:43.973Z,963.64
2017-11-17T14:50:43.958Z,963.62
2017-11-17T14:52:37.356Z,963.61
2017-11-17T14:53:37.347Z,963.62
2017-11-17T14:55:30.729Z,963.62
2017-11-17T14:56:30.749Z,963.60
2017-11-17T14:58:24.097Z,963.56
2017-11-17T14:59:24.137Z,963.55
2017-11-17T15:01:17.524Z,963.56
2017-11-17T15:02:17.492Z,963.57
2017-11-17T15:04:11.932Z,963.55
2017-11-17T15:05:11.982Z,963.55
2017-11-17T15:07:04.880Z,963.54
2017-11-17T15:08:04.848Z,963.54
2017-11-17T15:09:59.236Z,963.51
2017-11-17T15:10:59.218Z,963.54
2017-11-17T15:12:53.598Z,963.61
2017-11-17T15:13:53.627Z,963.55
2017-11-17T15:15:47.083Z,963.59
2017-11-17T15:16:47.011Z,963.60
2017-11-17T15:18:40.429Z,963.57
2017-11-17T15:19:40.466Z,963.57
2017-11-17T15:21:35.820Z,963.53
2017-11-17T15:22:35.821Z,963.53
2017-11-17T15:24:37.823Z,963.53
2017-11-17T15:25:29.295Z,963.52
2017-11-17T15:27:22.724Z,963.50
2017-11-17T15:28:22.828Z,963.51
2017-11-17T15:30:16.600Z,963.51
2017-11-17T15:31:16.063Z,963.47
2017-11-17T15:33:09.524Z,963.53
2017-11-17T15:34:09.577Z,963.52
2017-11-17T15:36:02.839Z,963.53
2017-11-17T15:37:02.898Z,963.52
2017-11-17T15:38:59.310Z,963.53
2017-11-17T15:39:59.240Z,963.51
2017-11-17T15:41:52.663Z,963.51
2017-11-17T15:42:52.685Z,963.52
2017-11-17T15:44:46.090Z,963.53
2017-11-17T15:45:46.088Z,963.49
2017-11-17T15:47:39.555Z,963.52
2017-11-17T15:48:39.662Z,963.55
2017-11-17T15:50:34.002Z,963.58
2017-11-17T15:51:34.017Z,963.54
2017-11-17T15:53:27.437Z,963.56
2017-11-17T15:54:36.022Z,963.54
2017-11-17T15:56:22.846Z,963.53
2017-11-17T15:57:22.806Z,963.50
2017-11-17T15:59:17.160Z,963.51
2017-11-17T16:00:17.302Z,963.49
2017-11-17T16:02:11.607Z,963.51
2017-11-17T16:03:11.754Z,963.53
2017-11-17T16:05:05.197Z,963.47
2017-11-17T16:06:05.148Z,963.46
2017-11-17T16:08:07.196Z,963.47
2017-11-17T16:08:59.481Z,963.45
2017-11-17T16:10:53.844Z,963.48
2017-11-17T16:11:53.892Z,963.52
2017-11-17T16:13:47.526Z,963.51
2017-11-17T16:14:56.257Z,963.53
2017-11-17T16:16:40.849Z,963.51
2017-11-17T16:17:40.872Z,963.52
2017-11-17T16:19:35.290Z,963.53
2017-11-17T16:20:35.295Z,963.54
2017-11-17T16:22:28.720Z,963.56
2017-11-17T16:23:28.647Z,963.54
2017-11-17T16:25:22.100Z,963.56
2017-11-17T16:26:22.061Z,963.54
2017-11-17T16:28:16.560Z,963.53
2017-11-17T16:29:16.466Z,963.52
2017-11-17T16:31:10.137Z,963.53
2017-11-17T16:32:09.765Z,963.51
2017-11-17T16:34:04.391Z,963.49
2017-11-17T16:35:04.255Z,963.50
2017-11-17T16:36:58.761Z,963.52
2017-11-17T16:37:58.720Z,963.54
2017-11-17T16:39:51.985Z,963.50
2017-11-17T16:40:52.100Z,963.50
2017-11-17T16:42:46.582Z,963.49
2017-11-17T16:43:46.491Z,963.50
2017-11-17T16:45:39.890Z,963.53
2017-11-17T16:46:39.900Z,963.50
2017-11-17T16:48:33.238Z,963.54
2017-11-17T16:49:33.292Z,963.54
2017-11-17T16:51:26.645Z,963.56
2017-11-17T16:52:26.585Z,963.59
2017-11-17T16:54:20.171Z,963.60
2017-11-17T16:55:20.130Z,963.60
2017-11-17T16:57:13.518Z,963.67
2017-11-17T16:58:13.438Z,963.61
2017-11-17T17:00:06.902Z,963.65
2017-11-17T17:01:06.864Z,963.62
2017-11-17T17:03:00.254Z,963.63
2017-11-17T17:04:00.230Z,963.59
2017-11-17T17:05:53.637Z,963.62
2017-11-17T17:06:53.638Z,963.62
2017-11-17T17:08:47.117Z,963.60
2017-11-17T17:09:46.980Z,963.57
2017-11-17T17:11:41.548Z,963.55
2017-11-17T17:12:41.544Z,963.55
2017-11-17T17:14:35.776Z,963.56
2017-11-17T17:15:35.754Z,963.57
2017-11-17T17:17:30.160Z,963.56
2017-11-17T17:18:30.124Z,963.55
2017-11-17T17:20:23.528Z,963.56
2017-11-17T17:21:23.555Z,963.61
2017-11-17T17:23:16.956Z,963.60
2017-11-17T17:24:16.960Z,963.59
2017-11-17T17:26:10.291Z,963.59
2017-11-17T17:27:10.302Z,963.57
2017-11-17T17:29:03.725Z,963.60
2017-11-17T17:30:03.687Z,963.63
2017-11-17T17:31:57.131Z,963.59
2017-11-17T17:32:57.105Z,963.58
2017-11-17T17:34:50.528Z,963.62
2017-11-17T17:35:50.436Z,963.60
2017-11-17T17:37:43.901Z,963.61
2017-11-17T17:38:44.148Z,963.57
2017-11-17T17:40:37.223Z,963.60
2017-11-17T17:41:37.383Z,963.61
2017-11-17T17:43:31.862Z,963.58
2017-11-17T17:44:31.693Z,963.52
2017-11-17T17:46:25.135Z,963.52
2017-11-17T17:47:25.072Z,963.50
2017-11-17T17:49:19.437Z,963.54
2017-11-17T17:50:19.438Z,963.57
2017-11-17T17:52:12.882Z,963.60
2017-11-17T17:53:12.900Z,963.59
2017-11-17T17:55:06.306Z,963.63
2017-11-17T17:56:06.253Z,963.62
2017-11-17T17:57:59.654Z,963.60
2017-11-17T17:58:59.635Z,963.60
2017-11-17T18:00:53.062Z,963.61
2017-11-17T18:01:53.043Z,963.65
2017-11-17T18:03:46.474Z,963.64